Time;durP1;ratioP1;P1;durP2;ratioP2;P2;SDS_P1;SDS_P2;PMS_P1;PMS_P2;Temp;Humidity;BMP_temperature;BMP_pressure;BME280_temperature;BME280_humidity;BME280_pressure;Samples;Min_cycle;Max_cycle;Signal;HPM_P1;HPM_P2
2021/03/13 00:00:11;;;;;;;2.50;1.27;;;;;;;5.37;75.04;96014.72;5064932;28;20599;-67
2021/03/13 00:02:38;;;;;;;1.50;0.90;;;;;;;5.64;74.88;96015.59;5073062;28;20452;-69
2021/03/13 00:05:05;;;;;;;1.10;0.90;;;;;;;5.29;75.74;96022.44;5072870;28;20424;-68
2021/03/13 00:07:30;;;;;;;1.70;0.90;;;;;;;5.49;75.83;96017.91;5072636;28;20413;-69
2021/03/13 00:09:56;;;;;;;3.30;0.90;;;;;;;5.82;74.80;96008.59;5071396;28;20498;-68
2021/03/13 00:12:22;;;;;;;3.70;1.20;;;;;;;5.52;75.25;96012.44;5059177;28;20277;-69
2021/03/13 00:14:48;;;;;;;2.50;1.13;;;;;;;5.93;74.00;95993.72;5075094;28;20548;-68
2021/03/13 00:17:13;;;;;;;1.40;1.23;;;;;;;5.98;74.01;96002.69;5072829;28;20181;-68
2021/03/13 00:19:39;;;;;;;2.67;1.17;;;;;;;6.02;73.83;95999.81;5071188;28;20440;-67
2021/03/13 00:22:05;;;;;;;3.40;1.10;;;;;;;6.23;73.13;96004.66;5075068;28;20593;-69
2021/03/13 00:24:30;;;;;;;1.97;1.10;;;;;;;6.21;73.11;96012.59;5074563;28;20307;-69
2021/03/13 00:26:56;;;;;;;2.30;1.40;;;;;;;6.20;73.28;96007.56;5071439;28;20186;-68
2021/03/13 00:29:22;;;;;;;3.40;1.33;;;;;;;6.16;73.88;96009.66;5072911;28;20288;-68
2021/03/13 00:31:48;;;;;;;1.10;0.97;;;;;;;6.24;74.30;96009.69;5075763;28;20186;-69
2021/03/13 00:34:14;;;;;;;4.43;1.33;;;;;;;6.51;73.02;96010.47;5071034;28;20182;-68
2021/03/13 00:36:40;;;;;;;2.60;1.20;;;;;;;6.11;75.23;96027.50;5061697;28;20474;-69
2021/03/13 00:39:05;;;;;;;5.80;1.70;;;;;;;6.49;73.52;96002.00;5071548;28;20263;-68
2021/03/13 00:41:31;;;;;;;3.03;1.13;;;;;;;6.30;73.89;96001.25;5072544;28;20556;-68
2021/03/13 00:43:57;;;;;;;1.93;1.30;;;;;;;6.60;72.21;96001.72;5076591;28;20680;-68
2021/03/13 00:46:22;;;;;;;1.53;1.00;;;;;;;6.30;73.76;96001.25;5087222;28;20425;-68
2021/03/13 00:48:48;;;;;;;3.10;1.30;;;;;;;5.63;75.19;96014.78;5071559;28;20190;-68
2021/03/13 00:51:14;;;;;;;4.90;1.17;;;;;;;5.51;75.56;96010.78;5071325;28;20616;-67
2021/03/13 00:53:39;;;;;;;5.93;1.20;;;;;;;5.78;74.77;95991.66;5075514;28;20724;-68
2021/03/13 00:56:05;;;;;;;0.80;0.60;;;;;;;5.75;74.16;95983.34;5074347;28;20179;-69
2021/03/13 00:58:31;;;;;;;2.07;0.90;;;;;;;6.02;73.53;95979.00;5070112;28;20186;-70
2021/03/13 01:00:56;;;;;;;1.30;0.90;;;;;;;5.74;74.64;95986.91;5066866;28;20656;-69
2021/03/13 01:03:22;;;;;;;1.63;0.80;;;;;;;5.79;74.41;95992.50;5071436;28;20248;-69
2021/03/13 01:05:47;;;;;;;1.37;0.80;;;;;;;5.66;75.70;96003.28;5073790;28;20194;-68
2021/03/13 01:08:13;;;;;;;1.33;0.70;;;;;;;5.77;75.89;96000.44;5074499;28;20194;-68
2021/03/13 01:10:39;;;;;;;2.90;0.70;;;;;;;5.91;74.75;95980.03;5074802;28;20634;-68
2021/03/13 01:13:05;;;;;;;1.00;0.60;;;;;;;6.07;73.57;95948.13;5073481;28;20210;-68
2021/03/13 01:15:32;;;;;;;1.50;0.70;;;;;;;5.71;74.74;95943.03;5073650;28;20981;-68
2021/03/13 01:17:58;;;;;;;2.20;0.80;;;;;;;5.51;75.03;95940.63;5065086;28;20509;-68
2021/03/13 01:20:24;;;;;;;1.10;0.80;;;;;;;5.99;73.90;95947.13;5074498;28;20448;-68
2021/03/13 01:22:51;;;;;;;0.90;0.80;;;;;;;6.33;72.22;95939.47;5077103;28;20448;-68
2021/03/13 01:25:16;;;;;;;1.23;0.80;;;;;;;6.03;72.95;95933.81;5084281;28;20427;-68
2021/03/13 01:27:42;;;;;;;2.13;0.77;;;;;;;6.22;72.21;95925.78;5081313;28;20432;-68
2021/03/13 01:30:11;;;;;;;2.43;0.70;;;;;;;6.52;71.49;95923.63;5077872;28;20193;-70
2021/03/13 01:32:37;;;;;;;4.80;0.77;;;;;;;6.62;71.23;95913.03;5075789;28;20755;-68
2021/03/13 01:35:07;;;;;;;2.17;0.70;;;;;;;6.49;71.63;95918.72;5076315;28;20427;-67
2021/03/13 01:37:33;;;;;;;1.70;1.00;;;;;;;6.48;71.60;95914.47;5056871;28;20202;-69
2021/03/13 01:39:59;;;;;;;1.37;0.80;;;;;;;6.25;72.26;95909.84;5080589;28;20827;-69
2021/03/13 01:42:25;;;;;;;1.30;0.80;;;;;;;6.47;71.69;95909.44;5068935;28;20201;-67
2021/03/13 01:44:50;;;;;;;2.47;1.00;;;;;;;6.43;71.96;95906.31;5079560;28;20209;-71
2021/03/13 01:47:24;;;;;;;1.17;0.83;;;;;;;6.67;71.22;95886.56;5059023;28;20770;-68
2021/03/13 01:49:51;;;;;;;2.50;0.90;;;;;;;6.85;71.03;95883.81;5073692;28;20187;-70
2021/03/13 01:52:18;;;;;;;1.30;0.80;;;;;;;6.68;70.95;95875.19;5074594;28;20480;-68
2021/03/13 01:54:43;;;;;;;3.93;1.30;;;;;;;6.79;70.75;95871.44;5074129;28;20420;-70
2021/03/13 01:57:10;;;;;;;1.20;0.90;;;;;;;6.79;70.65;95869.66;5073486;28;20425;-69
2021/03/13 01:59:35;;;;;;;2.90;1.00;;;;;;;6.79;70.64;95863.63;5070768;28;20182;-68
2021/03/13 02:02:08;;;;;;;0.97;0.83;;;;;;;6.67;70.97;95855.31;5074799;28;20536;-67
2021/03/13 02:04:36;;;;;;;2.83;0.90;;;;;;;6.70;71.35;95849.78;5073355;28;20210;-68
2021/03/13 02:07:06;;;;;;;1.10;0.80;;;;;;;6.71;71.19;95852.22;5064870;28;20483;-68
2021/03/13 02:10:17;;;;;;;1.30;1.00;;;;;;;6.61;71.49;95844.56;5074779;28;20448;-69
2021/03/13 02:12:58;;;;;;;3.00;0.97;;;;;;;6.48;71.96;95846.00;5073366;28;20531;-67
2021/03/13 02:15:28;;;;;;;6.90;1.20;;;;;;;6.37;72.97;95839.31;5061386;28;20429;-69
2021/03/13 02:18:00;;;;;;;1.27;0.90;;;;;;;6.52;72.15;95822.09;5073100;28;20424;-70
2021/03/13 02:20:47;;;;;;;2.40;1.30;;;;;;;6.47;72.33;95821.75;5071614;28;20931;-70
2021/03/13 02:23:14;;;;;;;1.90;1.20;;;;;;;6.27;72.77;95824.66;5055096;28;20480;-68
2021/03/13 02:26:01;;;;;;;2.13;1.40;;;;;;;6.38;72.87;95822.72;5069464;28;20523;-70
2021/03/13 02:29:04;;;;;;;1.43;1.10;;;;;;;6.13;73.57;95817.47;5053855;28;20461;-68
2021/03/13 02:31:31;;;;;;;2.90;1.50;;;;;;;6.27;73.15;95818.63;5062953;28;20470;-70
2021/03/13 02:33:59;;;;;;;5.27;1.50;;;;;;;6.19;73.12;95816.81;5061082;28;20421;-69
2021/03/13 02:36:26;;;;;;;4.10;1.23;;;;;;;6.18;73.80;95820.38;5071376;28;20439;-69
2021/03/13 02:39:11;;;;;;;2.90;1.13;;;;;;;6.33;73.52;95811.97;5065157;28;20418;-69
2021/03/13 02:41:39;;;;;;;2.60;1.40;;;;;;;6.28;73.46;95810.69;5054815;28;20460;-69
2021/03/13 02:44:06;;;;;;;2.47;1.40;;;;;;;6.46;72.72;95809.72;5072232;28;20444;-69
2021/03/13 02:46:37;;;;;;;4.40;1.73;;;;;;;6.60;72.03;95803.88;5060045;28;20446;-69
2021/03/13 02:49:04;;;;;;;4.40;1.83;;;;;;;6.60;72.06;95793.47;5073149;28;20428;-69
2021/03/13 02:51:31;;;;;;;5.63;1.67;;;;;;;6.33;72.25;95791.97;5063767;28;20421;-67
2021/03/13 02:53:57;;;;;;;2.27;1.30;;;;;;;6.40;72.38;95794.75;5063246;28;20516;-68
2021/03/13 02:56:23;;;;;;;5.27;1.67;;;;;;;6.39;72.32;95791.31;5072508;28;20425;-69
2021/03/13 02:58:51;;;;;;;4.37;1.70;;;;;;;6.38;71.62;95783.69;5067888;28;20475;-68
2021/03/13 03:01:17;;;;;;;1.50;1.40;;;;;;;6.82;70.73;95775.56;5071708;28;20459;-69
2021/03/13 03:03:44;;;;;;;3.00;1.10;;;;;;;6.87;70.52;95778.50;5070164;28;20452;-69
2021/03/13 03:06:10;;;;;;;4.77;1.57;;;;;;;6.92;70.23;95778.00;5054962;28;20510;-69
2021/03/13 03:08:38;;;;;;;7.03;1.63;;;;;;;6.98;69.45;95787.78;5071285;28;20444;-70
2021/03/13 03:11:04;;;;;;;6.70;1.60;;;;;;;7.11;69.07;95773.44;5071050;28;20423;-70
2021/03/13 03:13:29;;;;;;;3.50;1.30;;;;;;;7.12;68.88;95773.25;5064151;28;20437;-70
2021/03/13 03:16:03;;;;;;;8.70;1.87;;;;;;;7.25;68.50;95775.34;5071324;28;20421;-68
2021/03/13 03:18:30;;;;;;;5.70;1.13;;;;;;;7.14;69.07;95779.13;5070845;28;20838;-69
2021/03/13 03:20:56;;;;;;;8.00;1.50;;;;;;;7.04;68.53;95770.69;5064169;28;20457;-68
2021/03/13 03:23:22;;;;;;;5.73;1.20;;;;;;;7.33;67.61;95762.31;5071107;28;20446;-69
2021/03/13 03:25:51;;;;;;;6.20;1.60;;;;;;;7.45;67.72;95765.34;5071682;28;20520;-68
2021/03/13 03:28:19;;;;;;;7.70;1.70;;;;;;;7.35;67.66;95759.53;5072649;28;20638;-68
2021/03/13 03:30:47;;;;;;;2.83;1.10;;;;;;;7.28;68.00;95756.78;5072249;28;20424;-69
2021/03/13 03:33:12;;;;;;;3.50;1.23;;;;;;;7.28;68.26;95753.38;5072880;28;20537;-69
2021/03/13 03:35:38;;;;;;;3.00;1.20;;;;;;;7.16;68.33;95748.50;5072755;28;20518;-70
2021/03/13 03:38:04;;;;;;;2.17;1.40;;;;;;;7.26;68.04;95745.69;5071679;28;20190;-68
2021/03/13 03:40:32;;;;;;;14.33;2.30;;;;;;;7.43;67.77;95743.88;5072590;28;20484;-70
2021/03/13 03:43:10;;;;;;;3.63;1.37;;;;;;;7.43;67.54;95749.09;5073842;28;20234;-68
2021/03/13 03:45:36;;;;;;;4.30;1.57;;;;;;;7.33;68.14;95741.47;5071373;28;20967;-69
2021/03/13 03:48:07;;;;;;;3.03;1.60;;;;;;;7.36;68.09;95735.09;5067501;28;20429;-69
2021/03/13 03:50:34;;;;;;;4.47;1.70;;;;;;;7.41;67.50;95738.00;5066556;28;20655;-69
2021/03/13 03:53:00;;;;;;;3.63;1.30;;;;;;;7.64;67.13;95726.84;5082347;28;20807;-68
2021/03/13 03:55:26;;;;;;;1.97;1.10;;;;;;;7.58;66.95;95730.09;5079409;28;20477;-70
2021/03/13 03:57:53;;;;;;;3.03;1.30;;;;;;;7.69;66.59;95742.78;5065133;28;20457;-69
2021/03/13 04:00:20;;;;;;;7.23;1.13;;;;;;;7.59;66.77;95719.53;5053812;28;20457;-69
2021/03/13 04:02:46;;;;;;;2.80;1.20;;;;;;;7.68;66.50;95723.72;5059913;28;20448;-71
2021/03/13 04:05:14;;;;;;;3.57;1.20;;;;;;;7.55;67.28;95727.88;5070617;28;20433;-69
2021/03/13 04:07:40;;;;;;;6.80;1.50;;;;;;;7.41;67.67;95727.59;5060300;28;21310;-69
2021/03/13 04:10:08;;;;;;;4.03;1.47;;;;;;;7.42;68.15;95724.00;5058902;28;20429;-68
2021/03/13 04:12:38;;;;;;;2.77;1.10;;;;;;;7.36;68.22;95724.66;5056476;28;20442;-68
2021/03/13 04:15:08;;;;;;;2.73;1.20;;;;;;;7.46;67.90;95727.06;5054036;28;20554;-69
2021/03/13 04:17:33;;;;;;;2.30;1.10;;;;;;;7.49;67.73;95730.16;5054521;28;20426;-69
2021/03/13 04:19:59;;;;;;;2.37;1.00;;;;;;;7.54;67.35;95724.44;5051216;28;20944;-68
2021/03/13 04:22:25;;;;;;;3.70;1.23;;;;;;;7.69;67.19;95725.34;5052248;28;20438;-68
2021/03/13 04:24:52;;;;;;;4.70;1.30;;;;;;;7.28;69.01;95738.53;5050685;28;20213;-68
2021/03/13 04:27:18;;;;;;;3.27;1.70;;;;;;;7.52;67.02;95732.44;5051564;28;20413;-67
2021/03/13 04:29:45;;;;;;;5.47;1.23;;;;;;;7.51;67.26;95733.41;5054170;28;20483;-70
2021/03/13 04:32:12;;;;;;;1.90;1.07;;;;;;;7.58;66.47;95730.09;5053608;28;20492;-69
2021/03/13 04:34:38;;;;;;;4.33;1.20;;;;;;;7.55;66.97;95739.09;5054170;28;20516;-69
2021/03/13 04:37:05;;;;;;;3.87;1.10;;;;;;;7.90;65.78;95726.53;5064415;28;20429;-69
2021/03/13 04:39:31;;;;;;;4.47;1.03;;;;;;;7.83;66.19;95720.41;5061618;28;20417;-68
2021/03/13 04:41:57;;;;;;;2.57;1.10;;;;;;;8.20;65.24;95720.66;5056049;28;20535;-69
2021/03/13 04:44:23;;;;;;;5.20;1.20;;;;;;;8.08;66.00;95725.47;5053837;28;20448;-69
2021/03/13 04:46:50;;;;;;;1.77;0.90;;;;;;;7.75;66.57;95716.03;5053224;28;20429;-70
2021/03/13 04:49:16;;;;;;;10.37;1.20;;;;;;;7.47;66.53;95713.88;5053915;28;20536;-69
2021/03/13 04:51:43;;;;;;;1.90;1.00;;;;;;;7.68;66.25;95702.06;5054692;28;20448;-69
2021/03/13 04:54:08;;;;;;;3.57;1.10;;;;;;;7.66;66.56;95701.41;5053835;28;20182;-69
2021/03/13 04:56:34;;;;;;;2.80;0.90;;;;;;;7.74;65.92;95711.78;5057291;28;20432;-69
2021/03/13 04:58:59;;;;;;;3.70;1.20;;;;;;;7.82;65.92;95698.69;5057796;28;20186;-67
2021/03/13 05:01:25;;;;;;;1.67;1.00;;;;;;;7.60;66.12;95696.88;5061232;28;20692;-70
2021/03/13 05:03:51;;;;;;;3.80;1.40;;;;;;;7.77;65.58;95689.75;5063140;28;20222;-69
2021/03/13 05:06:16;;;;;;;3.20;0.80;;;;;;;7.89;65.48;95691.00;5056467;28;20211;-69
2021/03/13 05:08:42;;;;;;;1.00;0.70;;;;;;;7.70;65.50;95689.63;5058283;28;20265;-69
2021/03/13 05:11:08;;;;;;;6.30;1.07;;;;;;;7.89;64.78;95682.38;5054931;28;20233;-69
2021/03/13 05:13:34;;;;;;;1.00;0.80;;;;;;;7.84;64.76;95681.09;5055718;28;20199;-70
2021/03/13 05:16:00;;;;;;;1.90;0.80;;;;;;;8.00;63.86;95680.16;5054974;28;20460;-71
2021/03/13 05:18:25;;;;;;;4.30;1.00;;;;;;;7.84;64.06;95680.28;5054043;28;20195;-68
2021/03/13 05:20:51;;;;;;;1.40;0.90;;;;;;;7.87;64.46;95671.28;5054713;28;20260;-68
2021/03/13 05:23:17;;;;;;;2.93;1.00;;;;;;;8.21;63.21;95691.78;5054380;28;20267;-68
2021/03/13 05:25:43;;;;;;;1.57;0.87;;;;;;;8.06;63.04;95683.06;5055753;28;20190;-69
2021/03/13 05:28:09;;;;;;;4.17;0.90;;;;;;;7.91;63.40;95677.81;5045185;28;20214;-69
2021/03/13 05:30:35;;;;;;;2.40;1.07;;;;;;;8.01;63.37;95673.16;5054119;28;20456;-69
2021/03/13 05:33:00;;;;;;;9.33;1.13;;;;;;;8.10;62.43;95687.78;5054133;28;20210;-68
2021/03/13 05:35:26;;;;;;;1.40;0.90;;;;;;;8.31;62.50;95681.13;5054650;28;20187;-69
2021/03/13 05:37:52;;;;;;;2.40;1.00;;;;;;;8.19;61.92;95677.28;5061422;28;20191;-69
2021/03/13 05:40:18;;;;;;;1.30;0.90;;;;;;;7.98;62.74;95676.13;5053594;28;20203;-70
2021/03/13 05:42:43;;;;;;;2.77;0.93;;;;;;;8.17;62.55;95669.63;5053745;28;20229;-70
2021/03/13 05:45:10;;;;;;;2.03;0.90;;;;;;;8.08;62.37;95668.88;5054639;28;20658;-68
2021/03/13 05:47:37;;;;;;;3.93;1.07;;;;;;;8.21;61.81;95667.47;5052902;28;20190;-70
2021/03/13 05:50:13;;;;;;;3.10;0.90;;;;;;;8.12;62.08;95664.13;5054047;28;20421;-67
2021/03/13 05:52:39;;;;;;;2.30;1.10;;;;;;;8.43;61.71;95663.22;5054154;28;20514;-67
2021/03/13 05:55:06;;;;;;;3.93;0.80;;;;;;;8.32;61.13;95658.41;5053616;28;20421;-68
2021/03/13 05:57:33;;;;;;;2.60;0.80;;;;;;;8.09;61.58;95660.06;5048864;28;20425;-68
2021/03/13 06:00:00;;;;;;;3.87;1.00;;;;;;;8.29;60.70;95662.19;5052913;28;20529;-67
2021/03/13 06:02:25;;;;;;;3.00;0.90;;;;;;;8.24;61.64;95648.84;5056701;28;20456;-66
2021/03/13 06:04:52;;;;;;;1.50;0.80;;;;;;;8.37;61.20;95640.44;5053667;28;20765;-67
2021/03/13 06:07:22;;;;;;;4.47;1.20;;;;;;;8.48;60.71;95629.59;5054010;28;20179;-68
2021/03/13 06:09:55;;;;;;;1.80;1.00;;;;;;;8.58;60.00;95629.31;5060416;28;20539;-66
2021/03/13 06:12:21;;;;;;;3.80;1.30;;;;;;;8.43;60.79;95626.66;5061264;28;20501;-66
2021/03/13 06:14:48;;;;;;;3.30;1.10;;;;;;;8.46;60.50;95629.72;5061604;28;20779;-66
2021/03/13 06:17:14;;;;;;;3.20;1.10;;;;;;;8.39;60.12;95626.22;5069900;28;20455;-68
2021/03/13 06:19:52;;;;;;;4.00;1.20;;;;;;;8.45;59.56;95629.91;5054099;28;20437;-67
2021/03/13 06:22:37;;;;;;;9.40;1.47;;;;;;;8.46;60.05;95621.91;5058985;28;20448;-68
2021/03/13 06:25:25;;;;;;;3.87;1.10;;;;;;;8.53;59.23;95622.03;5057891;28;20476;-68
2021/03/13 06:27:59;;;;;;;4.67;1.20;;;;;;;8.76;58.38;95618.53;5057196;28;20433;-69
2021/03/13 06:30:30;;;;;;;3.70;1.00;;;;;;;8.65;58.04;95614.59;5059442;28;20504;-67
2021/03/13 06:32:56;;;;;;;4.10;1.00;;;;;;;8.67;58.60;95609.16;5061999;28;20461;-67
2021/03/13 06:35:29;;;;;;;4.93;1.30;;;;;;;8.67;58.32;95623.06;5071028;28;20430;-68
2021/03/13 06:37:59;;;;;;;5.80;1.37;;;;;;;8.60;58.67;95609.06;5064520;28;20190;-67
2021/03/13 06:40:33;;;;;;;4.07;1.43;;;;;;;8.68;58.34;95614.22;5072209;28;20452;-67
2021/03/13 06:43:00;;;;;;;2.03;1.07;;;;;;;8.85;57.42;95603.59;5071827;28;20935;-65
2021/03/13 06:45:26;;;;;;;3.97;1.20;;;;;;;8.88;57.04;95603.22;5073295;28;20738;-66
2021/03/13 06:47:52;;;;;;;1.50;1.20;;;;;;;9.18;56.92;95600.59;5056035;28;20437;-70
2021/03/13 06:50:21;;;;;;;2.87;1.07;;;;;;;9.22;55.37;95584.38;5061334;28;20448;-66
2021/03/13 06:52:51;;;;;;;4.63;1.00;;;;;;;9.34;55.31;95582.06;5054219;28;20530;-68
2021/03/13 06:55:19;;;;;;;4.83;1.17;;;;;;;9.43;54.62;95567.09;5048043;28;20430;-68
2021/03/13 06:57:47;;;;;;;7.13;1.17;;;;;;;9.42;54.69;95568.09;5057452;28;20440;-68
2021/03/13 07:00:29;;;;;;;6.07;0.93;;;;;;;9.55;54.96;95575.28;5063062;28;20516;-68
2021/03/13 07:03:12;;;;;;;2.90;1.00;;;;;;;9.78;54.09;95566.44;5052507;28;20442;-67
2021/03/13 07:05:40;;;;;;;7.50;1.20;;;;;;;9.51;54.44;95564.34;5066411;28;20421;-68
2021/03/13 07:08:32;;;;;;;2.23;1.10;;;;;;;9.46;54.40;95555.44;5061988;28;20422;-68
2021/03/13 07:11:10;;;;;;;3.60;0.90;;;;;;;9.44;54.60;95549.63;5055242;28;20486;-69
2021/03/13 07:13:37;;;;;;;13.07;1.37;;;;;;;9.42;54.23;95562.84;5053555;28;20445;-67
2021/03/13 07:16:22;;;;;;;3.53;1.00;;;;;;;9.68;52.92;95557.09;5056024;28;20792;-67
2021/03/13 07:18:49;;;;;;;4.10;0.90;;;;;;;9.52;53.80;95558.13;5054831;28;20425;-67
2021/03/13 07:21:16;;;;;;;3.53;0.80;;;;;;;9.48;53.60;95551.66;5058801;28;20510;-67
2021/03/13 07:23:43;;;;;;;4.53;1.10;;;;;;;9.72;52.62;95541.00;5051633;28;20487;-67
2021/03/13 07:26:12;;;;;;;3.53;1.00;;;;;;;9.39;53.75;95547.53;5048410;28;20509;-67
2021/03/13 07:28:40;;;;;;;1.83;0.90;;;;;;;9.18;53.88;95532.66;5049037;28;20694;-67
2021/03/13 07:31:09;;;;;;;3.03;1.20;;;;;;;9.81;52.59;95526.81;5052987;28;20432;-67
2021/03/13 07:33:39;;;;;;;7.27;1.30;;;;;;;9.66;52.37;95532.09;5051041;28;20506;-67
2021/03/13 07:36:10;;;;;;;6.10;1.07;;;;;;;9.84;51.82;95518.56;5052355;28;20426;-67
2021/03/13 07:38:37;;;;;;;3.00;0.90;;;;;;;9.21;52.65;95540.94;5048758;28;20432;-67
2021/03/13 07:41:03;;;;;;;2.00;0.90;;;;;;;9.67;51.61;95525.88;5050573;28;20547;-67
2021/03/13 07:43:30;;;;;;;5.70;1.00;;;;;;;9.71;51.35;95521.06;5056987;28;20457;-68
2021/03/13 07:45:56;;;;;;;3.00;0.90;;;;;;;9.95;50.51;95538.19;5053446;28;20249;-67
2021/03/13 07:48:21;;;;;;;1.33;0.70;;;;;;;9.85;51.04;95514.97;5048080;28;20905;-67
2021/03/13 07:50:48;;;;;;;2.50;0.90;;;;;;;9.93;50.74;95533.16;5056342;28;20440;-67
2021/03/13 07:53:14;;;;;;;3.50;0.70;;;;;;;10.30;50.10;95533.00;5050692;28;20256;-67
2021/03/13 07:55:40;;;;;;;7.80;1.27;;;;;;;10.27;49.02;95544.69;5058605;28;20433;-67
2021/03/13 07:58:07;;;;;;;2.10;0.97;;;;;;;9.91;50.28;95529.91;5050876;28;20472;-67
2021/03/13 08:00:47;;;;;;;1.10;0.70;;;;;;;10.38;49.11;95519.00;5065268;28;20459;-67
2021/03/13 08:03:34;;;;;;;1.87;0.90;;;;;;;10.30;49.64;95509.44;5043314;28;20512;-67
2021/03/13 08:06:10;;;;;;;2.13;0.70;;;;;;;10.29;48.99;95526.16;5060673;28;20433;-67
2021/03/13 08:08:38;;;;;;;4.23;0.90;;;;;;;10.21;49.47;95521.88;5051452;28;20630;-67
2021/03/13 08:11:05;;;;;;;2.70;0.87;;;;;;;10.21;49.32;95514.00;5041923;28;20429;-68
2021/03/13 08:13:30;;;;;;;2.17;0.83;;;;;;;9.44;50.40;95486.88;5049916;28;20456;-68
2021/03/13 08:16:12;;;;;;;1.43;0.80;;;;;;;10.16;48.86;95492.84;5071156;28;20420;-68
2021/03/13 08:18:40;;;;;;;1.43;0.60;;;;;;;10.52;48.18;95493.72;5054073;28;20183;-67
2021/03/13 08:21:18;;;;;;;2.60;0.60;;;;;;;10.02;49.13;95472.81;5056348;28;20944;-69
2021/03/13 08:23:49;;;;;;;1.40;0.60;;;;;;;10.28;48.74;95469.56;5051216;28;20499;-68
2021/03/13 08:26:17;;;;;;;2.90;0.70;;;;;;;10.07;48.60;95471.25;5052228;28;20464;-67
2021/03/13 08:28:49;;;;;;;1.70;0.80;;;;;;;10.23;48.21;95459.66;5058661;28;20421;-67
2021/03/13 08:31:23;;;;;;;2.53;0.80;;;;;;;10.12;47.73;95449.72;5044479;28;20416;-67
2021/03/13 08:33:49;;;;;;;2.87;0.80;;;;;;;10.09;48.03;95440.47;5053130;28;20452;-69
2021/03/13 08:36:16;;;;;;;2.60;0.60;;;;;;;10.27;47.29;95445.19;5051530;28;20788;-68
2021/03/13 08:38:53;;;;;;;3.07;0.87;;;;;;;10.27;47.33;95439.94;5051633;28;20332;-68
2021/03/13 08:41:43;;;;;;;1.40;0.77;;;;;;;10.19;46.27;95434.06;5057957;28;20854;-68
2021/03/13 08:44:37;;;;;;;1.80;0.80;;;;;;;10.80;45.30;95443.03;5055517;28;20444;-67
2021/03/13 08:47:11;;;;;;;4.50;0.90;;;;;;;11.28;43.72;95448.16;5050012;28;20513;-68
2021/03/13 08:49:45;;;;;;;6.53;1.17;;;;;;;11.11;44.33;95444.31;5053404;28;20436;-68
2021/03/13 08:52:10;;;;;;;1.63;0.80;;;;;;;10.98;44.44;95430.19;5048012;28;20528;-68
2021/03/13 08:54:47;;;;;;;1.80;0.77;;;;;;;10.83;44.99;95438.22;5058802;28;20504;-70
2021/03/13 08:57:14;;;;;;;2.67;0.90;;;;;;;10.34;45.64;95436.53;5045024;28;20202;-68
2021/03/13 08:59:53;;;;;;;3.87;0.80;;;;;;;10.18;46.06;95420.19;5083378;28;20436;-68
2021/03/13 09:02:21;;;;;;;3.27;0.90;;;;;;;10.89;44.57;95416.44;5044600;28;20438;-68
2021/03/13 09:04:56;;;;;;;2.33;0.90;;;;;;;11.05;43.94;95409.22;5053390;28;20426;-68
2021/03/13 09:07:22;;;;;;;2.30;1.00;;;;;;;11.21;43.64;95414.06;5050373;28;20425;-68
2021/03/13 09:09:49;;;;;;;2.13;0.93;;;;;;;11.23;43.99;95400.78;5052938;28;20441;-68
2021/03/13 09:12:16;;;;;;;1.53;0.90;;;;;;;10.95;43.79;95414.84;5050832;28;20445;-69
2021/03/13 09:14:53;;;;;;;3.13;0.80;;;;;;;11.12;43.51;95394.31;5055059;28;20418;-66
2021/03/13 09:17:23;;;;;;;3.87;0.97;;;;;;;11.16;43.83;95395.53;5046829;28;20425;-66
2021/03/13 09:19:50;;;;;;;3.03;0.80;;;;;;;11.25;43.60;95376.97;5059925;28;20435;-68
2021/03/13 09:22:17;;;;;;;2.37;1.10;;;;;;;11.44;42.63;95370.13;5055795;28;20453;-69
2021/03/13 09:24:50;;;;;;;1.87;0.87;;;;;;;11.17;42.92;95360.44;5054694;28;20418;-67
2021/03/13 09:27:15;;;;;;;4.30;0.90;;;;;;;11.49;42.39;95367.69;5067163;28;20833;-67
2021/03/13 09:29:42;;;;;;;1.50;0.90;;;;;;;10.78;43.96;95380.34;5046262;28;20423;-68
2021/03/13 09:32:11;;;;;;;1.67;0.90;;;;;;;11.43;43.14;95358.81;5054061;28;20199;-66
2021/03/13 09:34:42;;;;;;;1.85;0.80;;;;;;;11.43;42.56;95353.59;5051648;28;20511;-69
2021/03/13 09:37:12;;;;;;;2.60;0.80;;;;;;;11.35;42.62;95351.97;5051950;28;20766;-67
2021/03/13 09:39:38;;;;;;;1.60;0.80;;;;;;;11.29;42.73;95341.47;5054293;28;21216;-69
2021/03/13 09:42:06;;;;;;;3.27;1.40;;;;;;;11.50;42.54;95362.25;5053810;28;20461;-68
2021/03/13 09:44:50;;;;;;;1.80;0.83;;;;;;;10.97;43.32;95344.69;5061182;28;20214;-69
2021/03/13 09:47:20;;;;;;;1.50;1.10;;;;;;;11.78;42.20;95336.78;5064065;28;20421;-68
2021/03/13 09:49:52;;;;;;;1.60;1.10;;;;;;;11.86;41.74;95333.13;5057453;28;20845;-68
2021/03/13 09:52:27;;;;;;;2.43;0.80;;;;;;;11.29;42.69;95268.06;5078669;28;20941;-68
2021/03/13 09:55:04;;;;;;;1.77;1.13;;;;;;;11.33;43.24;95353.19;5055046;28;20425;-68
2021/03/13 09:57:29;;;;;;;1.27;0.80;;;;;;;11.77;42.51;95345.69;5057501;28;20458;-69
2021/03/13 09:59:55;;;;;;;3.77;0.97;;;;;;;11.23;43.69;95348.34;5055564;28;20409;-69
2021/03/13 10:02:21;;;;;;;7.93;1.37;;;;;;;11.29;43.47;95351.97;5053054;28;20702;-70
2021/03/13 10:04:49;;;;;;;4.80;0.90;;;;;;;11.45;43.31;95348.13;5052749;28;20945;-67
2021/03/13 10:07:15;;;;;;;2.27;1.00;;;;;;;11.49;43.36;95328.34;5052210;28;20422;-69
2021/03/13 10:09:50;;;;;;;1.63;0.90;;;;;;;11.54;43.35;95346.91;5046186;28;20865;-67
2021/03/13 10:12:23;;;;;;;1.57;0.80;;;;;;;11.37;43.49;95315.03;5047309;28;20455;-70
2021/03/13 10:14:49;;;;;;;5.30;0.90;;;;;;;11.33;43.51;95329.59;5060162;28;20425;-69
2021/03/13 10:17:15;;;;;;;1.97;0.97;;;;;;;11.28;43.51;95334.63;5074824;28;20483;-67
2021/03/13 10:19:41;;;;;;;5.47;0.93;;;;;;;10.85;44.64;95346.28;5042307;28;20485;-68
2021/03/13 10:22:25;;;;;;;7.47;1.20;;;;;;;10.82;44.47;95337.03;5056807;28;20191;-67
2021/03/13 10:24:54;;;;;;;4.97;0.70;;;;;;;11.01;44.43;95306.59;5066880;28;20516;-67
2021/03/13 10:27:26;;;;;;;1.73;0.90;;;;;;;10.81;44.72;95319.69;5067066;28;20413;-68
2021/03/13 10:29:56;;;;;;;1.90;0.63;;;;;;;11.11;44.42;95316.66;5072867;28;20413;-67
2021/03/13 10:32:27;;;;;;;1.23;0.67;;;;;;;11.43;43.36;95301.13;5067170;28;20499;-69
2021/03/13 10:35:11;;;;;;;1.67;0.70;;;;;;;11.44;43.63;95312.41;5055615;28;20423;-69
2021/03/13 10:37:44;;;;;;;2.40;0.90;;;;;;;11.49;43.32;95325.72;5041799;28;20488;-68
2021/03/13 10:40:12;;;;;;;3.50;0.70;;;;;;;11.17;44.37;95313.25;5063446;28;20469;-68
2021/03/13 10:42:38;;;;;;;2.23;0.60;;;;;;;10.78;44.94;95327.13;5066481;28;20491;-68
2021/03/13 10:45:30;;;;;;;0.90;0.60;;;;;;;11.30;43.94;95311.63;5053010;28;20536;-66
2021/03/13 10:48:04;;;;;;;1.67;1.00;;;;;;;11.02;44.52;95305.59;5050880;28;20680;-69
2021/03/13 10:50:29;;;;;;;2.23;0.87;;;;;;;11.02;44.80;95307.41;5058971;28;20436;-70
2021/03/13 10:52:55;;;;;;;1.40;0.70;;;;;;;11.26;43.48;95310.41;5058769;28;20449;-67
2021/03/13 10:55:37;;;;;;;1.10;0.60;;;;;;;11.34;43.43;95328.59;5053882;28;20183;-69
2021/03/13 10:58:02;;;;;;;0.90;0.60;;;;;;;11.02;44.09;95305.59;5056050;28;20193;-69
2021/03/13 11:00:28;;;;;;;1.10;0.70;;;;;;;11.48;43.27;95303.94;5057659;28;20822;-69
2021/03/13 11:02:54;;;;;;;2.13;0.77;;;;;;;11.12;43.47;95286.81;5056438;28;20237;-70
2021/03/13 11:05:20;;;;;;;8.23;1.10;;;;;;;11.47;43.44;95270.03;5062143;28;20269;-70
2021/03/13 11:07:45;;;;;;;6.97;0.90;;;;;;;11.63;42.48;95285.34;5072222;28;20186;-69
2021/03/13 11:10:11;;;;;;;1.90;0.73;;;;;;;11.12;43.52;95284.19;5053262;28;20410;-68
2021/03/13 11:12:37;;;;;;;3.13;0.97;;;;;;;11.74;42.05;95277.84;5061644;28;20203;-72
2021/03/13 11:15:03;;;;;;;2.27;1.00;;;;;;;11.60;42.28;95284.94;5060768;28;20557;-69
2021/03/13 11:17:29;;;;;;;1.30;0.70;;;;;;;11.30;42.61;95280.94;5059483;28;20528;-70
2021/03/13 11:19:54;;;;;;;2.00;1.10;;;;;;;11.91;41.47;95263.22;5057528;28;20460;-69
2021/03/13 11:22:20;;;;;;;1.50;1.00;;;;;;;11.91;41.49;95260.63;5052527;28;20241;-70
2021/03/13 11:24:46;;;;;;;4.17;1.57;;;;;;;11.78;41.66;95255.44;5052322;28;20179;-69
2021/03/13 11:27:11;;;;;;;3.93;1.53;;;;;;;11.33;42.78;95271.91;5057578;28;20508;-70
2021/03/13 11:29:37;;;;;;;3.57;1.10;;;;;;;11.51;42.30;95294.88;5051686;28;20662;-68
2021/03/13 11:32:03;;;;;;;3.03;1.03;;;;;;;11.84;42.02;95280.84;5051787;28;20174;-69
2021/03/13 11:34:28;;;;;;;1.60;0.90;;;;;;;11.76;42.23;95281.06;5052125;28;20199;-70
2021/03/13 11:36:54;;;;;;;1.20;0.80;;;;;;;11.90;41.98;95280.03;5059048;28;20246;-69
2021/03/13 11:39:20;;;;;;;3.17;0.73;;;;;;;11.22;43.08;95281.97;5059337;28;20191;-67
2021/03/13 11:41:46;;;;;;;2.43;0.80;;;;;;;11.34;43.05;95287.41;5051103;28;20594;-66
2021/03/13 11:44:11;;;;;;;1.30;0.60;;;;;;;11.17;43.22;95258.19;5051876;28;20702;-66
2021/03/13 11:46:37;;;;;;;3.43;0.70;;;;;;;11.66;42.17;95278.88;5051962;28;20692;-66